Avondale, Washington
Current Conditions -  °F | °C
As of 3:06 PM on Wednesday 22 Oct 2014 (Local Time) from KBFI Reporting Station
Light Rain Light Rain  
Wind Chill: 15°   Ceiling: 7700
Heat Index: 15°   Visibility: 9mi
Dew Point: 12°   Wind: 6mph
Humidity: 82%   Direction: 130°SE
Pressure: 29.64"   Gusts: NA
Location:  47.6833°N, 122.123°W
Report Text: KBFI 222206Z 13005KT 9SM -RA FEW009 BKN077 OVC090 15/12 A2964 RMK AO2 P0001
Loading
Personal Weather Stations






























Interactive Weather Map
Tropical Storm Tracking
New forecast layout! Learn more

10-Day Weather Forecast

Advertisements
Track Severe Weather on mobile